Time;durP1;ratioP1;P1;durP2;ratioP2;P2;SDS_P1;SDS_P2;PMS_P1;PMS_P2;Temp;Humidity;BMP_temperature;BMP_pressure;BME280_temperature;BME280_humidity;BME280_pressure;Samples;Min_cycle;Max_cycle;Signal;HPM_P1;HPM_P2
2023/12/29 00:00:15;;;;;;;1.27;1.20;;;;;;;;;;6385991;27;20287;-68
2023/12/29 00:03:19;;;;;;;1.00;1.00;;;;;;;;;;6385392;27;20307;-68
2023/12/29 00:06:23;;;;;;;1.20;1.20;;;;;;;;;;6367336;27;20590;-68
2023/12/29 00:09:27;;;;;;;1.10;1.10;;;;;;;;;;6385324;27;20477;-68
2023/12/29 00:12:31;;;;;;;1.30;1.30;;;;;;;;;;6385367;27;20567;-68
2023/12/29 00:15:37;;;;;;;1.13;1.13;;;;;;;;;;6385640;27;20287;-68
2023/12/29 00:18:42;;;;;;;1.00;1.00;;;;;;;;;;6384609;27;20299;-68
2023/12/29 00:21:46;;;;;;;3.43;1.10;;;;;;;;;;6385188;27;20312;-68
2023/12/29 00:24:50;;;;;;;1.17;1.10;;;;;;;;;;6384387;27;20290;-69
2023/12/29 00:27:54;;;;;;;1.00;1.00;;;;;;;;;;6384649;27;20291;-68
2023/12/29 00:30:59;;;;;;;1.40;1.30;;;;;;;;;;6383605;28;20296;-68
2023/12/29 00:34:07;;;;;;;1.20;1.20;;;;;;;;;;6383207;28;20292;-67
2023/12/29 00:37:11;;;;;;;1.10;1.10;;;;;;;;;;6366118;28;20312;-68
2023/12/29 00:40:15;;;;;;;1.00;1.00;;;;;;;;;;6385415;28;20466;-68
2023/12/29 00:43:19;;;;;;;1.53;1.23;;;;;;;;;;6384811;28;20287;-68
2023/12/29 00:46:24;;;;;;;1.17;1.17;;;;;;;;;;6367039;28;20299;-68
2023/12/29 00:49:28;;;;;;;1.27;1.27;;;;;;;;;;6384847;28;20315;-68
2023/12/29 00:52:32;;;;;;;1.10;1.10;;;;;;;;;;6366028;27;20290;-68
2023/12/29 00:55:36;;;;;;;1.13;1.13;;;;;;;;;;6366201;28;20500;-68
2023/12/29 00:58:40;;;;;;;1.30;1.30;;;;;;;;;;6388055;27;20295;-68
2023/12/29 01:01:45;;;;;;;1.00;1.00;;;;;;;;;;6371665;27;20290;-68
2023/12/29 01:04:49;;;;;;;1.20;1.20;;;;;;;;;;6404453;27;20572;-67
2023/12/29 01:07:53;;;;;;;1.10;1.10;;;;;;;;;;6389614;27;20284;-67
2023/12/29 01:10:58;;;;;;;1.67;1.17;;;;;;;;;;6371201;27;20306;-67
2023/12/29 01:14:01;;;;;;;1.00;1.00;;;;;;;;;;6388668;27;20464;-67
2023/12/29 01:17:07;;;;;;;1.27;1.27;;;;;;;;;;6370125;27;20536;-68
2023/12/29 01:20:11;;;;;;;1.23;1.23;;;;;;;;;;6387384;27;20303;-67
2023/12/29 01:23:16;;;;;;;1.13;1.13;;;;;;;;;;6389080;27;20304;-67
2023/12/29 01:26:20;;;;;;;2.07;1.87;;;;;;;;;;6387861;27;20259;-67
2023/12/29 01:29:23;;;;;;;1.57;1.47;;;;;;;;;;6388901;27;20314;-67
2023/12/29 01:32:29;;;;;;;1.60;1.50;;;;;;;;;;6370368;27;20295;-67
2023/12/29 01:35:33;;;;;;;1.60;1.60;;;;;;;;;;6389323;27;20296;-67
2023/12/29 01:38:36;;;;;;;2.10;2.03;;;;;;;;;;6369968;27;20363;-67
2023/12/29 01:41:40;;;;;;;1.63;1.63;;;;;;;;;;6389035;27;20314;-66
2023/12/29 01:44:44;;;;;;;1.73;1.70;;;;;;;;;;6388584;27;20291;-67
2023/12/29 01:47:50;;;;;;;3.40;1.60;;;;;;;;;;6388508;27;20291;-67
2023/12/29 01:50:57;;;;;;;1.80;1.80;;;;;;;;;;6389021;27;20291;-67
2023/12/29 01:54:01;;;;;;;1.50;1.50;;;;;;;;;;6377037;27;20284;-68
2023/12/29 01:57:05;;;;;;;2.00;2.00;;;;;;;;;;6344828;28;20311;-67
2023/12/29 02:00:11;;;;;;;1.90;1.77;;;;;;;;;;6372834;27;20291;-67
2023/12/29 02:03:18;;;;;;;1.93;1.70;;;;;;;;;;6387771;27;20302;-68
2023/12/29 02:06:23;;;;;;;2.50;1.93;;;;;;;;;;6370527;27;20295;-69
2023/12/29 02:09:26;;;;;;;1.90;1.80;;;;;;;;;;6387491;27;20292;-69
2023/12/29 02:12:31;;;;;;;1.63;1.53;;;;;;;;;;6378630;27;20280;-69
2023/12/29 02:15:35;;;;;;;1.80;1.80;;;;;;;;;;6386726;27;20303;-69
2023/12/29 02:18:44;;;;;;;2.00;1.83;;;;;;;;;;6388009;27;20307;-69
2023/12/29 02:21:48;;;;;;;2.00;1.90;;;;;;;;;;6386217;27;20307;-69
2023/12/29 02:24:53;;;;;;;2.20;2.07;;;;;;;;;;6395287;27;20471;-69
2023/12/29 02:28:00;;;;;;;2.57;2.10;;;;;;;;;;6409789;27;20295;-69
2023/12/29 02:31:09;;;;;;;2.07;2.07;;;;;;;;;;6388226;27;20296;-69
2023/12/29 02:34:13;;;;;;;2.00;1.90;;;;;;;;;;6387286;27;20312;-68
2023/12/29 02:37:19;;;;;;;1.87;1.87;;;;;;;;;;6387239;27;20373;-68
2023/12/29 02:40:24;;;;;;;2.23;2.00;;;;;;;;;;6368949;27;20291;-69
2023/12/29 02:43:28;;;;;;;1.90;1.80;;;;;;;;;;6386821;27;20299;-68
2023/12/29 02:46:32;;;;;;;1.87;1.80;;;;;;;;;;6369228;27;20299;-69
2023/12/29 02:49:36;;;;;;;1.73;1.70;;;;;;;;;;6387205;27;20312;-68
2023/12/29 02:52:40;;;;;;;1.83;1.83;;;;;;;;;;6368154;27;20341;-69
2023/12/29 02:55:45;;;;;;;1.67;1.67;;;;;;;;;;6345089;28;20293;-69
2023/12/29 02:58:49;;;;;;;2.00;1.90;;;;;;;;;;6361198;28;20305;-69
2023/12/29 03:01:53;;;;;;;2.17;2.00;;;;;;;;;;6361245;28;20300;-69
2023/12/29 03:04:57;;;;;;;1.97;1.90;;;;;;;;;;6361452;28;20300;-69
2023/12/29 03:08:01;;;;;;;1.80;1.80;;;;;;;;;;6360639;28;20296;-69
2023/12/29 03:11:07;;;;;;;2.00;1.80;;;;;;;;;;6371130;27;20427;-69
2023/12/29 03:14:12;;;;;;;2.00;1.80;;;;;;;;;;6411782;27;20291;-68
2023/12/29 03:17:16;;;;;;;2.30;2.10;;;;;;;;;;6411607;27;20317;-69
2023/12/29 03:20:20;;;;;;;1.87;1.87;;;;;;;;;;6399189;27;20295;-68
2023/12/29 03:23:23;;;;;;;2.43;2.33;;;;;;;;;;6385778;27;20295;-69
2023/12/29 03:26:29;;;;;;;2.07;1.97;;;;;;;;;;6367769;27;20288;-68
2023/12/29 03:29:32;;;;;;;2.90;2.50;;;;;;;;;;6368862;27;20288;-69
2023/12/29 03:32:37;;;;;;;2.73;2.53;;;;;;;;;;6358669;28;20291;-69
2023/12/29 03:35:42;;;;;;;2.57;2.47;;;;;;;;;;6359155;28;20295;-69
2023/12/29 03:38:46;;;;;;;2.70;2.50;;;;;;;;;;6360304;28;20296;-68
2023/12/29 03:41:51;;;;;;;2.90;2.80;;;;;;;;;;6360139;28;20296;-69
2023/12/29 03:44:55;;;;;;;3.10;2.87;;;;;;;;;;6360481;28;20284;-69
2023/12/29 03:47:59;;;;;;;2.60;2.60;;;;;;;;;;6359955;28;20307;-69
2023/12/29 03:51:04;;;;;;;4.30;2.80;;;;;;;;;;6360758;28;20301;-69
2023/12/29 03:54:08;;;;;;;3.40;2.63;;;;;;;;;;6359690;28;20296;-69
2023/12/29 03:57:13;;;;;;;3.10;2.90;;;;;;;;;;6341708;28;20314;-68
2023/12/29 04:00:17;;;;;;;2.20;2.10;;;;;;;;;;6343818;27;20300;-69
2023/12/29 04:03:21;;;;;;;2.87;2.33;;;;;;;;;;6370943;27;20287;-68
2023/12/29 04:06:25;;;;;;;2.60;2.20;;;;;;;;;;6374655;27;20300;-69
2023/12/29 04:09:29;;;;;;;2.10;2.00;;;;;;;;;;6359620;28;20451;-69
2023/12/29 04:12:34;;;;;;;2.30;2.00;;;;;;;;;;6384563;27;20290;-66
2023/12/29 04:15:38;;;;;;;2.33;2.03;;;;;;;;;;6385196;27;20453;-69
2023/12/29 04:18:43;;;;;;;1.87;1.87;;;;;;;;;;6361376;27;20545;-69
2023/12/29 04:21:47;;;;;;;2.07;1.97;;;;;;;;;;6382943;27;20355;-69
2023/12/29 04:24:51;;;;;;;2.27;2.17;;;;;;;;;;6384836;27;20287;-69
2023/12/29 04:27:56;;;;;;;1.87;1.73;;;;;;;;;;6367383;27;20299;-68
2023/12/29 04:31:01;;;;;;;2.07;1.90;;;;;;;;;;6411305;27;20295;-69
2023/12/29 04:34:05;;;;;;;2.33;1.87;;;;;;;;;;6410063;27;20305;-69
2023/12/29 04:37:09;;;;;;;1.77;1.67;;;;;;;;;;6394651;27;20320;-69
2023/12/29 04:40:14;;;;;;;1.50;1.50;;;;;;;;;;6384924;28;20315;-69
2023/12/29 04:43:19;;;;;;;1.63;1.63;;;;;;;;;;6369350;28;20565;-69
2023/12/29 04:46:23;;;;;;;1.60;1.40;;;;;;;;;;6359750;28;20301;-68
2023/12/29 04:49:27;;;;;;;1.33;1.33;;;;;;;;;;6359072;28;20578;-69
2023/12/29 04:52:31;;;;;;;1.50;1.40;;;;;;;;;;6359542;28;20560;-66
2023/12/29 04:55:35;;;;;;;1.47;1.47;;;;;;;;;;6383221;28;20339;-68
2023/12/29 04:58:40;;;;;;;1.33;1.20;;;;;;;;;;6384230;28;20477;-67
2023/12/29 05:01:44;;;;;;;1.40;1.40;;;;;;;;;;6384522;28;20291;-67
2023/12/29 05:04:48;;;;;;;1.23;1.20;;;;;;;;;;6384501;28;20296;-67
2023/12/29 05:07:51;;;;;;;1.20;1.20;;;;;;;;;;6384351;28;20471;-67
2023/12/29 05:10:56;;;;;;;2.00;1.37;;;;;;;;;;6392820;27;20291;-67
2023/12/29 05:14:02;;;;;;;1.20;1.20;;;;;;;;;;6409762;27;20583;-67
2023/12/29 05:17:06;;;;;;;1.73;1.30;;;;;;;;;;6409895;27;20276;-67
2023/12/29 05:20:11;;;;;;;1.40;1.30;;;;;;;;;;6399202;27;20309;-68
2023/12/29 05:23:15;;;;;;;1.10;1.00;;;;;;;;;;6384263;28;20295;-67
2023/12/29 05:26:19;;;;;;;1.27;1.23;;;;;;;;;;6384616;28;20412;-67
2023/12/29 05:29:24;;;;;;;1.30;1.30;;;;;;;;;;6369029;28;20546;-67
2023/12/29 05:32:28;;;;;;;1.10;1.10;;;;;;;;;;6358995;28;20288;-68
2023/12/29 05:35:32;;;;;;;0.90;0.90;;;;;;;;;;6358458;28;20569;-67
2023/12/29 05:38:36;;;;;;;1.00;1.00;;;;;;;;;;6358547;28;20291;-67
2023/12/29 05:41:40;;;;;;;1.30;1.13;;;;;;;;;;6358967;28;20309;-67
2023/12/29 05:44:45;;;;;;;1.20;1.20;;;;;;;;;;6359981;28;20317;-67
2023/12/29 05:47:49;;;;;;;1.53;0.97;;;;;;;;;;6362865;28;20292;-67
2023/12/29 05:50:53;;;;;;;1.00;1.00;;;;;;;;;;6363710;28;20291;-68
2023/12/29 05:53:57;;;;;;;0.90;0.90;;;;;;;;;;6362552;28;20460;-68
2023/12/29 05:57:01;;;;;;;1.17;1.17;;;;;;;;;;6363379;28;20284;-68
2023/12/29 06:00:13;;;;;;;1.00;1.00;;;;;;;;;;6362540;28;20297;-68
2023/12/29 06:03:17;;;;;;;1.13;1.03;;;;;;;;;;6362451;28;20288;-68
2023/12/29 06:06:21;;;;;;;1.00;1.00;;;;;;;;;;6363264;28;20288;-68
2023/12/29 06:09:25;;;;;;;1.00;1.00;;;;;;;;;;6362546;28;20322;-68
2023/12/29 06:12:29;;;;;;;0.90;0.90;;;;;;;;;;6368521;27;20536;-68
2023/12/29 06:15:36;;;;;;;1.00;1.00;;;;;;;;;;6388005;27;20587;-68
2023/12/29 06:18:40;;;;;;;1.53;1.27;;;;;;;;;;6387977;27;20464;-68
2023/12/29 06:21:44;;;;;;;1.90;1.40;;;;;;;;;;6388219;27;20453;-68
2023/12/29 06:24:49;;;;;;;1.00;1.00;;;;;;;;;;6387648;27;20297;-68
2023/12/29 06:27:53;;;;;;;2.20;1.00;;;;;;;;;;6385030;27;20288;-68
2023/12/29 06:30:58;;;;;;;1.30;1.13;;;;;;;;;;6360473;28;20541;-68
2023/12/29 06:34:20;;;;;;;2.33;1.00;;;;;;;;;;6361658;28;20572;-68
2023/12/29 06:37:25;;;;;;;1.10;1.10;;;;;;;;;;6362222;28;20288;-67
2023/12/29 06:40:29;;;;;;;1.00;1.00;;;;;;;;;;6361785;28;20454;-68
2023/12/29 06:43:33;;;;;;;1.10;1.10;;;;;;;;;;6343317;28;20479;-68
2023/12/29 06:46:39;;;;;;;1.00;1.00;;;;;;;;;;6362351;28;20315;-69
2023/12/29 06:49:43;;;;;;;1.80;1.10;;;;;;;;;;6361454;28;20477;-68
2023/12/29 06:52:47;;;;;;;1.30;1.20;;;;;;;;;;6361504;28;20391;-68
2023/12/29 06:55:51;;;;;;;1.20;1.20;;;;;;;;;;6361956;28;20350;-68
2023/12/29 06:58:55;;;;;;;2.87;1.37;;;;;;;;;;6361318;28;20617;-68
2023/12/29 07:02:00;;;;;;;1.37;1.37;;;;;;;;;;6361565;28;20480;-68
2023/12/29 07:05:05;;;;;;;1.50;1.40;;;;;;;;;;6360081;28;20292;-68
2023/12/29 07:08:09;;;;;;;2.30;1.60;;;;;;;;;;6361144;28;20287;-69
2023/12/29 07:11:16;;;;;;;1.50;1.50;;;;;;;;;;6374604;27;20257;-68
2023/12/29 07:14:22;;;;;;;2.60;1.90;;;;;;;;;;6386828;27;20288;-68
2023/12/29 07:17:27;;;;;;;2.00;1.67;;;;;;;;;;6387034;27;20293;-68
2023/12/29 07:20:31;;;;;;;1.70;1.60;;;;;;;;;;6386376;27;20308;-68
2023/12/29 07:23:35;;;;;;;3.03;2.10;;;;;;;;;;6384382;27;20556;-68
2023/12/29 07:26:39;;;;;;;2.30;2.20;;;;;;;;;;6386481;27;20292;-68
2023/12/29 07:29:43;;;;;;;2.20;2.10;;;;;;;;;;6367908;27;20452;-68
2023/12/29 07:32:48;;;;;;;2.23;2.17;;;;;;;;;;6360069;28;20335;-68
2023/12/29 07:35:52;;;;;;;2.30;2.30;;;;;;;;;;6360754;28;20284;-68
2023/12/29 07:38:56;;;;;;;1.87;1.87;;;;;;;;;;6360190;28;20294;-68
2023/12/29 07:42:00;;;;;;;2.30;2.20;;;;;;;;;;6360649;28;20289;-68
2023/12/29 07:45:09;;;;;;;4.20;2.20;;;;;;;;;;6341707;28;20300;-68
2023/12/29 07:48:14;;;;;;;2.83;2.00;;;;;;;;;;6360008;28;20585;-68
2023/12/29 07:51:18;;;;;;;3.60;2.40;;;;;;;;;;6360571;28;20297;-68
2023/12/29 07:54:25;;;;;;;3.40;2.10;;;;;;;;;;6359919;28;20597;-68
2023/12/29 07:57:29;;;;;;;5.47;2.40;;;;;;;;;;6360492;28;20616;-68
2023/12/29 08:00:34;;;;;;;2.77;2.03;;;;;;;;;;6359946;28;20292;-68
2023/12/29 08:03:39;;;;;;;7.77;2.17;;;;;;;;;;6359486;28;20288;-68
2023/12/29 08:06:43;;;;;;;4.88;2.40;;;;;;;;;;6359742;28;20297;-67
2023/12/29 08:09:47;;;;;;;4.97;2.05;;;;;;;;;;6360166;28;20484;-67
2023/12/29 08:12:51;;;;;;;2.77;1.70;;;;;;;;;;6385391;27;20291;-68
2023/12/29 08:15:55;;;;;;;2.17;1.70;;;;;;;;;;6367139;27;20315;-68
2023/12/29 08:19:00;;;;;;;3.80;1.70;;;;;;;;;;6385205;27;20296;-68
2023/12/29 08:22:04;;;;;;;5.77;1.90;;;;;;;;;;6385631;27;20300;-68
2023/12/29 08:25:09;;;;;;;2.63;1.83;;;;;;;;;;6385134;27;20459;-68
2023/12/29 08:28:13;;;;;;;2.13;1.80;;;;;;;;;;6379946;27;20505;-68
2023/12/29 08:31:17;;;;;;;10.25;2.17;;;;;;;;;;6360305;28;20455;-68
2023/12/29 08:34:22;;;;;;;4.17;2.03;;;;;;;;;;6359106;28;20312;-68
2023/12/29 08:37:30;;;;;;;8.40;2.08;;;;;;;;;;6360014;28;20297;-68
2023/12/29 08:40:33;;;;;;;9.13;2.20;;;;;;;;;;6359472;28;20296;-68
2023/12/29 08:43:38;;;;;;;6.22;2.10;;;;;;;;;;6358868;28;20475;-68
2023/12/29 08:46:42;;;;;;;3.50;2.10;;;;;;;;;;6359823;28;20284;-69
2023/12/29 08:49:48;;;;;;;4.35;1.90;;;;;;;;;;6359172;28;20288;-68
2023/12/29 08:52:52;;;;;;;9.88;2.58;;;;;;;;;;6358996;28;20288;-69
2023/12/29 08:55:57;;;;;;;5.80;1.83;;;;;;;;;;6341559;28;20304;-68
2023/12/29 08:59:00;;;;;;;5.27;1.77;;;;;;;;;;6358491;28;20293;-71
2023/12/29 09:02:04;;;;;;;4.07;1.50;;;;;;;;;;6359622;28;20262;-68
2023/12/29 09:05:11;;;;;;;7.40;2.00;;;;;;;;;;6358918;28;20280;-68
2023/12/29 09:08:15;;;;;;;2.78;1.77;;;;;;;;;;6358974;28;20285;-68
2023/12/29 09:11:19;;;;;;;5.90;2.05;;;;;;;;;;6373369;28;20240;-68
2023/12/29 09:14:23;;;;;;;5.75;1.92;;;;;;;;;;6384520;28;20293;-68
2023/12/29 09:17:27;;;;;;;5.57;1.92;;;;;;;;;;6385194;28;20288;-68
2023/12/29 09:20:32;;;;;;;5.70;1.70;;;;;;;;;;6387100;27;20292;-68
2023/12/29 09:23:38;;;;;;;2.17;1.80;;;;;;;;;;6389145;27;20359;-68
2023/12/29 09:26:42;;;;;;;4.38;1.60;;;;;;;;;;6389882;27;20292;-68
2023/12/29 09:29:46;;;;;;;7.18;2.05;;;;;;;;;;6370519;27;20557;-68
2023/12/29 09:32:50;;;;;;;8.07;2.03;;;;;;;;;;6363342;28;20288;-68
2023/12/29 09:35:55;;;;;;;5.27;1.70;;;;;;;;;;6364028;28;20292;-69
2023/12/29 09:38:59;;;;;;;4.80;2.20;;;;;;;;;;6363134;28;20285;-68
2023/12/29 09:42:05;;;;;;;4.05;2.38;;;;;;;;;;6363542;28;20476;-67
2023/12/29 09:45:12;;;;;;;4.93;1.85;;;;;;;;;;6363192;28;20289;-68
2023/12/29 09:48:19;;;;;;;8.13;1.73;;;;;;;;;;6363107;28;20289;-68
2023/12/29 09:51:24;;;;;;;6.30;1.83;;;;;;;;;;6363417;28;20379;-68
2023/12/29 09:54:28;;;;;;;6.13;1.70;;;;;;;;;;6362701;28;20297;-69
2023/12/29 09:57:33;;;;;;;3.97;1.98;;;;;;;;;;6363348;28;20458;-68
2023/12/29 10:00:37;;;;;;;4.05;1.60;;;;;;;;;;6344653;28;20457;-68
2023/12/29 10:03:41;;;;;;;8.63;1.90;;;;;;;;;;6362827;28;20301;-67
2023/12/29 10:06:48;;;;;;;5.22;2.03;;;;;;;;;;6363109;28;20297;-67
2023/12/29 10:09:56;;;;;;;4.70;1.80;;;;;;;;;;6363986;27;20288;-69
2023/12/29 10:13:00;;;;;;;5.68;2.00;;;;;;;;;;6388367;27;20288;-68
2023/12/29 10:16:10;;;;;;;4.00;1.92;;;;;;;;;;6388796;27;20466;-68
2023/12/29 10:19:22;;;;;;;2.88;1.90;;;;;;;;;;6388505;27;20296;-70
2023/12/29 10:22:33;;;;;;;8.75;1.98;;;;;;;;;;6414303;27;20303;-70
2023/12/29 10:25:37;;;;;;;5.32;2.10;;;;;;;;;;6413637;27;20291;-69
2023/12/29 10:28:41;;;;;;;2.40;1.90;;;;;;;;;;6403613;27;20292;-69
2023/12/29 10:31:45;;;;;;;4.47;2.05;;;;;;;;;;6387732;27;20433;-69
2023/12/29 10:34:49;;;;;;;6.28;1.63;;;;;;;;;;6387593;27;20292;-68
2023/12/29 10:37:55;;;;;;;8.20;2.13;;;;;;;;;;6387535;27;20288;-70
2023/12/29 10:41:12;;;;;;;6.18;2.40;;;;;;;;;;6387515;27;20320;-69
2023/12/29 10:44:17;;;;;;;7.13;2.03;;;;;;;;;;6367634;27;20577;-71
2023/12/29 10:47:21;;;;;;;4.40;2.10;;;;;;;;;;6387512;27;20296;-69
2023/12/29 10:50:27;;;;;;;9.25;2.13;;;;;;;;;;6387552;27;20292;-69
2023/12/29 10:53:32;;;;;;;8.60;2.47;;;;;;;;;;6386631;27;20284;-68
2023/12/29 10:56:38;;;;;;;10.65;2.72;;;;;;;;;;6387513;27;20284;-69
2023/12/29 10:59:43;;;;;;;6.50;2.60;;;;;;;;;;6367769;27;20407;-68
2023/12/29 11:02:55;;;;;;;18.90;2.70;;;;;;;;;;6386971;27;20303;-68
2023/12/29 11:06:01;;;;;;;6.45;2.17;;;;;;;;;;6387112;27;20280;-68
2023/12/29 11:09:06;;;;;;;8.10;2.38;;;;;;;;;;6386594;27;20296;-68
2023/12/29 11:12:12;;;;;;;15.90;2.25;;;;;;;;;;6410771;27;20307;-67
2023/12/29 11:15:16;;;;;;;8.32;2.40;;;;;;;;;;6412270;27;20283;-68
2023/12/29 11:18:20;;;;;;;9.07;3.78;;;;;;;;;;6412296;27;20291;-68
2023/12/29 11:21:27;;;;;;;6.25;2.47;;;;;;;;;;6412392;27;20291;-68
2023/12/29 11:24:32;;;;;;;9.18;2.45;;;;;;;;;;6412272;27;20296;-69
2023/12/29 11:27:44;;;;;;;8.63;2.00;;;;;;;;;;6410638;27;20291;-70
2023/12/29 11:30:48;;;;;;;7.03;2.40;;;;;;;;;;6385712;27;20300;-68
2023/12/29 11:33:58;;;;;;;6.60;2.40;;;;;;;;;;6386236;27;20292;-68
2023/12/29 11:37:12;;;;;;;9.68;2.28;;;;;;;;;;6386893;27;20296;-68
2023/12/29 11:40:21;;;;;;;10.88;2.47;;;;;;;;;;6385611;27;20296;-69
2023/12/29 11:43:27;;;;;;;18.90;2.90;;;;;;;;;;6384855;27;20583;-69
2023/12/29 11:46:35;;;;;;;6.00;2.35;;;;;;;;;;6386151;27;20288;-68
2023/12/29 11:50:00;;;;;;;6.80;2.40;;;;;;;;;;6385872;27;20308;-66
2023/12/29 11:53:05;;;;;;;11.25;2.60;;;;;;;;;;6384457;27;20292;-69
2023/12/29 11:56:16;;;;;;;12.57;2.47;;;;;;;;;;6386166;27;20237;-68
2023/12/29 11:59:21;;;;;;;6.75;2.53;;;;;;;;;;6385545;27;20292;-68
2023/12/29 12:02:28;;;;;;;8.60;2.50;;;;;;;;;;6385735;27;20288;-69
2023/12/29 12:05:48;;;;;;;7.43;2.80;;;;;;;;;;6385835;27;20436;-68
2023/12/29 12:09:19;;;;;;;10.48;2.50;;;;;;;;;;6385403;27;20280;-67
2023/12/29 12:12:42;;;;;;;6.68;2.00;;;;;;;;;;6411330;27;20291;-68
2023/12/29 12:15:47;;;;;;;9.32;2.80;;;;;;;;;;6410700;27;20292;-70
2023/12/29 12:18:51;;;;;;;8.40;2.30;;;;;;;;;;6410970;27;20291;-69
2023/12/29 12:21:56;;;;;;;7.07;2.28;;;;;;;;;;6411514;27;20295;-68
2023/12/29 12:25:01;;;;;;;10.82;2.65;;;;;;;;;;6410789;27;20291;-68
2023/12/29 12:28:08;;;;;;;7.82;2.45;;;;;;;;;;6406327;27;20489;-68
2023/12/29 12:31:14;;;;;;;5.80;2.42;;;;;;;;;;6385421;27;20301;-68
2023/12/29 12:34:18;;;;;;;13.88;2.80;;;;;;;;;;6384944;27;20284;-69
2023/12/29 12:37:26;;;;;;;5.93;2.53;;;;;;;;;;6385137;27;20328;-68
2023/12/29 12:40:29;;;;;;;10.20;2.25;;;;;;;;;;6384437;27;20288;-69
2023/12/29 12:43:36;;;;;;;14.30;2.80;;;;;;;;;;6384556;28;20300;-68
2023/12/29 12:46:43;;;;;;;6.82;2.40;;;;;;;;;;6385594;27;20296;-69
2023/12/29 12:49:47;;;;;;;11.90;2.53;;;;;;;;;;6384667;27;20292;-69
2023/12/29 12:52:52;;;;;;;9.25;2.50;;;;;;;;;;6384621;27;20291;-69
2023/12/29 12:55:56;;;;;;;4.30;2.40;;;;;;;;;;6390377;27;20340;-69
2023/12/29 12:59:03;;;;;;;8.35;2.47;;;;;;;;;;6389215;27;20291;-69
2023/12/29 13:02:09;;;;;;;11.13;2.28;;;;;;;;;;6388799;27;20284;-69
2023/12/29 13:05:16;;;;;;;11.00;2.70;;;;;;;;;;6389489;27;20329;-69
2023/12/29 13:08:21;;;;;;;9.55;2.40;;;;;;;;;;6389486;27;20802;-69
2023/12/29 13:11:37;;;;;;;7.72;2.10;;;;;;;;;;6409112;27;20288;-69
2023/12/29 13:14:42;;;;;;;6.75;2.47;;;;;;;;;;6415126;27;20351;-69
2023/12/29 13:17:51;;;;;;;9.30;2.50;;;;;;;;;;6414924;27;20303;-71
2023/12/29 13:20:55;;;;;;;7.88;2.42;;;;;;;;;;6414788;27;20288;-70
2023/12/29 13:24:04;;;;;;;7.75;3.40;;;;;;;;;;6414993;27;20283;-68
2023/12/29 13:27:08;;;;;;;5.15;2.83;;;;;;;;;;6413966;27;20484;-70
2023/12/29 13:30:14;;;;;;;10.90;2.92;;;;;;;;;;6391228;27;20288;-69
2023/12/29 13:33:26;;;;;;;8.55;2.60;;;;;;;;;;6388081;27;20296;-70
2023/12/29 13:36:36;;;;;;;3.87;2.03;;;;;;;;;;6388888;27;20493;-68
2023/12/29 13:39:42;;;;;;;8.07;2.40;;;;;;;;;;6387683;27;20300;-68
2023/12/29 13:42:48;;;;;;;3.00;2.20;;;;;;;;;;6388693;27;20296;-69
2023/12/29 13:45:54;;;;;;;7.53;2.67;;;;;;;;;;6389278;27;20292;-69
2023/12/29 13:48:58;;;;;;;5.68;2.30;;;;;;;;;;6388187;27;20288;-68
2023/12/29 13:52:02;;;;;;;6.43;2.95;;;;;;;;;;6389223;27;20289;-68
2023/12/29 13:55:07;;;;;;;4.13;2.20;;;;;;;;;;6387798;27;20308;-68
2023/12/29 13:58:12;;;;;;;11.25;2.80;;;;;;;;;;6388164;27;20288;-68
2023/12/29 14:01:17;;;;;;;7.30;2.45;;;;;;;;;;6388588;27;20289;-68
2023/12/29 14:04:21;;;;;;;5.50;2.40;;;;;;;;;;6387998;27;20296;-70
2023/12/29 14:07:26;;;;;;;2.65;2.33;;;;;;;;;;6388363;27;20296;-66
2023/12/29 14:10:31;;;;;;;3.17;2.00;;;;;;;;;;6397469;27;20291;-67
2023/12/29 14:13:35;;;;;;;5.43;1.93;;;;;;;;;;6413745;27;20402;-67
2023/12/29 14:16:41;;;;;;;6.40;2.87;;;;;;;;;;6414187;27;20284;-67
2023/12/29 14:19:45;;;;;;;10.38;2.97;;;;;;;;;;6404775;27;20310;-66
2023/12/29 14:22:49;;;;;;;10.65;3.03;;;;;;;;;;6413183;27;20296;-66
2023/12/29 14:25:53;;;;;;;8.23;2.90;;;;;;;;;;6414080;27;20296;-66
2023/12/29 14:29:05;;;;;;;11.52;2.63;;;;;;;;;;6401603;27;20284;-66
2023/12/29 14:32:10;;;;;;;11.87;3.60;;;;;;;;;;6387033;27;20282;-66
2023/12/29 14:35:15;;;;;;;12.75;3.30;;;;;;;;;;6387080;27;20300;-66
2023/12/29 14:38:20;;;;;;;6.25;2.97;;;;;;;;;;6386702;27;20297;-67
2023/12/29 14:41:25;;;;;;;9.27;3.13;;;;;;;;;;6384883;27;20494;-66
2023/12/29 14:44:28;;;;;;;10.75;3.30;;;;;;;;;;6386205;27;20284;-65
2023/12/29 14:47:34;;;;;;;10.70;2.67;;;;;;;;;;6387107;27;20448;-67
2023/12/29 14:50:38;;;;;;;12.88;3.00;;;;;;;;;;6386656;27;20293;-67
2023/12/29 14:53:44;;;;;;;13.80;2.67;;;;;;;;;;6386137;27;20533;-67
2023/12/29 14:56:48;;;;;;;5.33;3.27;;;;;;;;;;6387072;27;20289;-67
2023/12/29 14:59:52;;;;;;;13.07;4.10;;;;;;;;;;6386667;27;20287;-67
2023/12/29 15:02:58;;;;;;;9.70;3.22;;;;;;;;;;6386620;27;20291;-68
2023/12/29 15:06:02;;;;;;;11.38;2.88;;;;;;;;;;6387155;27;20437;-67
2023/12/29 15:09:07;;;;;;;6.78;2.88;;;;;;;;;;6386581;27;20295;-67
2023/12/29 15:12:11;;;;;;;11.38;3.22;;;;;;;;;;6410806;27;20483;-67
2023/12/29 15:15:15;;;;;;;6.80;2.90;;;;;;;;;;6412371;27;20328;-68
2023/12/29 15:18:20;;;;;;;6.93;3.28;;;;;;;;;;6412009;27;20284;-69
2023/12/29 15:21:24;;;;;;;4.57;3.25;;;;;;;;;;6412188;27;20296;-68
2023/12/29 15:24:28;;;;;;;7.75;3.53;;;;;;;;;;6411803;27;20287;-67
2023/12/29 15:27:32;;;;;;;9.00;3.65;;;;;;;;;;6412477;27;20296;-67
2023/12/29 15:30:36;;;;;;;10.27;3.75;;;;;;;;;;6411407;27;20287;-67
2023/12/29 15:33:41;;;;;;;10.43;3.20;;;;;;;;;;6411636;27;20596;-67
2023/12/29 15:36:45;;;;;;;5.68;3.30;;;;;;;;;;6412140;27;20482;-68
2023/12/29 15:39:49;;;;;;;7.47;3.22;;;;;;;;;;6411654;27;20447;-68
2023/12/29 15:42:54;;;;;;;8.38;2.78;;;;;;;;;;6411180;27;20288;-68
2023/12/29 15:45:58;;;;;;;11.30;3.10;;;;;;;;;;6411930;27;20295;-68
2023/12/29 15:49:04;;;;;;;13.32;4.15;;;;;;;;;;6411215;27;20295;-68
2023/12/29 15:52:08;;;;;;;8.40;3.55;;;;;;;;;;6411484;27;20287;-67
2023/12/29 15:55:12;;;;;;;11.50;3.75;;;;;;;;;;6389384;27;20299;-67
2023/12/29 15:58:16;;;;;;;7.85;3.05;;;;;;;;;;6385592;27;20465;-67
2023/12/29 16:01:26;;;;;;;10.60;3.03;;;;;;;;;;6385864;27;20297;-68
2023/12/29 16:04:31;;;;;;;12.02;3.38;;;;;;;;;;6366184;27;20589;-67
2023/12/29 16:07:36;;;;;;;10.65;2.83;;;;;;;;;;6385684;27;20322;-68
2023/12/29 16:10:39;;;;;;;7.32;3.33;;;;;;;;;;6396022;27;20299;-68
2023/12/29 16:13:43;;;;;;;9.77;3.50;;;;;;;;;;6391996;27;20553;-67
2023/12/29 16:16:47;;;;;;;9.57;3.70;;;;;;;;;;6411272;27;20291;-67
2023/12/29 16:19:53;;;;;;;14.18;3.45;;;;;;;;;;6410181;27;20374;-67
2023/12/29 16:22:56;;;;;;;7.50;3.47;;;;;;;;;;6410605;27;20296;-67
2023/12/29 16:26:06;;;;;;;8.07;4.00;;;;;;;;;;6411285;27;20295;-67
2023/12/29 16:29:10;;;;;;;8.93;3.63;;;;;;;;;;6395592;27;20292;-67
2023/12/29 16:32:21;;;;;;;10.73;4.25;;;;;;;;;;6384917;27;20233;-67
2023/12/29 16:35:30;;;;;;;6.88;3.70;;;;;;;;;;6384222;27;20288;-67
2023/12/29 16:38:34;;;;;;;13.15;4.10;;;;;;;;;;6385255;28;20280;-67
2023/12/29 16:41:39;;;;;;;7.45;3.33;;;;;;;;;;6385115;28;20288;-67
2023/12/29 16:44:43;;;;;;;5.07;3.45;;;;;;;;;;6367038;28;20293;-68
2023/12/29 16:47:47;;;;;;;8.35;3.88;;;;;;;;;;6358579;27;20288;-67
2023/12/29 16:50:52;;;;;;;6.10;3.40;;;;;;;;;;6359608;28;20289;-67
2023/12/29 16:53:56;;;;;;;11.38;4.18;;;;;;;;;;6369213;28;20288;-67
2023/12/29 16:57:00;;;;;;;9.35;4.13;;;;;;;;;;6385095;28;20289;-67
2023/12/29 17:00:05;;;;;;;7.40;3.80;;;;;;;;;;6384587;28;20288;-67
2023/12/29 17:03:09;;;;;;;8.60;4.22;;;;;;;;;;6384424;28;20297;-68
2023/12/29 17:06:15;;;;;;;7.55;3.65;;;;;;;;;;6367058;28;20608;-68
2023/12/29 17:09:20;;;;;;;11.57;5.23;;;;;;;;;;6384132;28;20297;-68
2023/12/29 17:12:24;;;;;;;10.02;4.78;;;;;;;;;;6357265;28;20285;-68
2023/12/29 17:15:28;;;;;;;10.07;4.85;;;;;;;;;;6358841;28;20293;-67
2023/12/29 17:18:32;;;;;;;14.15;5.13;;;;;;;;;;6358560;28;20335;-67
2023/12/29 17:21:38;;;;;;;15.32;5.20;;;;;;;;;;6332166;28;20743;-68
2023/12/29 17:24:43;;;;;;;11.48;4.80;;;;;;;;;;6333526;28;20544;-68
2023/12/29 17:27:47;;;;;;;9.90;4.95;;;;;;;;;;6334417;27;20301;-67
2023/12/29 17:30:51;;;;;;;8.52;4.13;;;;;;;;;;6377374;27;20376;-67
2023/12/29 17:33:55;;;;;;;13.23;5.05;;;;;;;;;;6384202;27;20312;-68
2023/12/29 17:37:01;;;;;;;8.50;5.03;;;;;;;;;;6384383;27;20288;-69
2023/12/29 17:40:06;;;;;;;9.70;4.60;;;;;;;;;;6384564;27;20292;-69
2023/12/29 17:43:10;;;;;;;8.50;4.37;;;;;;;;;;6388361;27;20296;-68
2023/12/29 17:46:14;;;;;;;9.93;4.33;;;;;;;;;;6388995;27;20293;-67
2023/12/29 17:49:22;;;;;;;9.02;4.55;;;;;;;;;;6388789;27;20458;-68
2023/12/29 17:52:27;;;;;;;7.07;4.43;;;;;;;;;;6389537;27;20288;-68
2023/12/29 17:55:31;;;;;;;9.70;4.37;;;;;;;;;;6361193;27;20292;-68
2023/12/29 17:58:35;;;;;;;17.23;5.37;;;;;;;;;;6362902;27;20292;-68
2023/12/29 18:01:40;;;;;;;20.02;5.60;;;;;;;;;;6363909;27;20290;-68
2023/12/29 18:04:46;;;;;;;13.80;4.78;;;;;;;;;;6363762;27;20289;-68
2023/12/29 18:07:51;;;;;;;10.40;5.20;;;;;;;;;;6361495;27;20297;-67
2023/12/29 18:10:56;;;;;;;8.63;4.90;;;;;;;;;;6349358;27;20297;-69
2023/12/29 18:14:00;;;;;;;10.07;5.50;;;;;;;;;;6337313;28;20578;-69
2023/12/29 18:17:09;;;;;;;9.63;5.00;;;;;;;;;;6337035;28;20430;-69
2023/12/29 18:20:16;;;;;;;8.70;4.73;;;;;;;;;;6328456;28;20304;-69
2023/12/29 18:23:22;;;;;;;5.67;4.40;;;;;;;;;;6336936;28;20594;-67
2023/12/29 18:26:26;;;;;;;9.70;4.60;;;;;;;;;;6337715;28;20460;-69